createdAt,value
2019-03-20T00:01:26.607Z,99043.09
2019-03-20T00:03:55.724Z,99050.00
2019-03-20T00:06:24.645Z,99045.70
2019-03-20T00:08:53.486Z,99049.24
2019-03-20T00:11:22.308Z,99045.80
2019-03-20T00:13:51.086Z,99052.18
2019-03-20T00:16:20.068Z,99056.02
2019-03-20T00:18:51.883Z,99053.00
2019-03-20T00:21:20.740Z,99050.84
2019-03-20T00:23:49.613Z,99057.73
2019-03-20T00:26:18.426Z,99052.18
2019-03-20T00:28:47.272Z,99053.06
2019-03-20T00:31:16.085Z,99053.06
2019-03-20T00:33:44.972Z,99049.17
2019-03-20T00:36:13.710Z,99054.77
2019-03-20T00:38:42.558Z,99051.30
2019-03-20T00:41:11.516Z,99058.66
2019-03-20T00:43:40.411Z,99050.00
2019-03-20T00:46:09.334Z,99053.06
2019-03-20T00:48:38.169Z,99050.47
2019-03-20T00:51:07.023Z,99050.88
2019-03-20T00:53:35.982Z,99048.80
2019-03-20T00:56:04.905Z,99047.53
2019-03-20T00:58:33.800Z,99047.52
2019-03-20T01:01:02.774Z,99051.38
2019-03-20T01:03:31.594Z,99053.06
2019-03-20T01:06:00.335Z,99043.63
2019-03-20T01:08:29.159Z,99044.90
2019-03-20T01:10:57.886Z,99045.36
2019-03-20T01:13:26.674Z,99046.22
2019-03-20T01:15:55.493Z,99043.64
2019-03-20T01:18:24.312Z,99043.64
2019-03-20T01:20:53.208Z,99044.16
2019-03-20T01:23:22.021Z,99045.45
2019-03-20T01:25:50.862Z,99051.07
2019-03-20T01:28:19.715Z,99050.66
2019-03-20T01:30:48.664Z,99045.49
2019-03-20T01:33:17.675Z,99046.00
2019-03-20T01:35:46.398Z,99047.31
2019-03-20T01:38:15.286Z,99042.66
2019-03-20T01:40:44.246Z,99041.39
2019-03-20T01:43:13.164Z,99037.17
2019-03-20T01:45:42.190Z,99046.28
2019-03-20T01:48:11.012Z,99042.03
2019-03-20T01:50:39.931Z,99043.36
2019-03-20T01:53:08.814Z,99053.36
2019-03-20T01:55:37.658Z,99056.83
2019-03-20T01:58:06.605Z,99053.45
2019-03-20T02:00:35.553Z,99056.06
2019-03-20T02:03:04.660Z,99058.68
2019-03-20T02:05:36.218Z,99063.92
2019-03-20T02:08:04.105Z,99061.38
2019-03-20T02:10:33.029Z,99056.66
2019-03-20T02:13:01.951Z,99057.13
2019-03-20T02:15:38.858Z,99053.70
2019-03-20T02:18:01.435Z,99059.80
2019-03-20T02:20:30.219Z,99060.26
2019-03-20T02:22:59.140Z,99059.45
2019-03-20T02:25:28.045Z,99061.20
2019-03-20T02:27:56.902Z,99058.63
2019-03-20T02:30:25.677Z,99055.24
2019-03-20T02:32:54.563Z,99054.37
2019-03-20T02:35:23.381Z,99055.24
2019-03-20T02:37:52.256Z,99054.38
2019-03-20T02:40:21.133Z,99054.84
2019-03-20T02:42:50.123Z,99060.42
2019-03-20T02:45:19.145Z,99062.58
2019-03-20T02:47:49.616Z,99062.60
2019-03-20T02:50:18.735Z,99061.30
2019-03-20T02:52:47.727Z,99065.64
2019-03-20T02:55:16.610Z,99064.78
2019-03-20T02:57:45.579Z,99072.16
2019-03-20T03:00:15.646Z,99067.44
2019-03-20T03:02:44.628Z,99066.59
2019-03-20T03:05:13.584Z,99066.16
2019-03-20T03:07:42.514Z,99067.93
2019-03-20T03:10:11.399Z,99072.20
2019-03-20T03:12:40.391Z,99073.06
2019-03-20T03:15:09.491Z,99072.63
2019-03-20T03:17:38.554Z,99076.50
2019-03-20T03:20:07.751Z,99076.52
2019-03-20T03:22:36.856Z,99077.80
2019-03-20T03:25:06.351Z,99078.66
2019-03-20T03:27:35.344Z,99084.27
2019-03-20T03:30:04.373Z,99085.98
2019-03-20T03:32:33.336Z,99086.84
2019-03-20T03:35:02.129Z,99083.38
2019-03-20T03:37:30.936Z,99087.70
2019-03-20T03:39:59.775Z,99091.16
2019-03-20T03:42:28.809Z,99086.41
2019-03-20T03:44:57.692Z,99085.55
2019-03-20T03:47:26.651Z,99087.27
2019-03-20T03:49:55.602Z,99091.16
2019-03-20T03:52:24.528Z,99088.58
2019-03-20T03:54:53.405Z,99092.91
2019-03-20T03:57:22.340Z,99101.95
2019-03-20T03:59:52.273Z,99096.41
2019-03-20T04:02:21.499Z,99100.70
2019-03-20T04:04:50.409Z,99101.14
2019-03-20T04:07:19.551Z,99097.27
2019-03-20T04:09:48.591Z,99102.89
2019-03-20T04:12:17.506Z,99103.76
2019-03-20T04:14:46.386Z,99109.80
2019-03-20T04:17:23.204Z,99104.67
2019-03-20T04:19:52.267Z,99114.59
2019-03-20T04:22:21.285Z,99109.41
2019-03-20T04:24:50.244Z,99111.53
2019-03-20T04:27:19.105Z,99118.86
2019-03-20T04:29:47.915Z,99119.77
2019-03-20T04:32:16.755Z,99120.16
2019-03-20T04:34:45.681Z,99117.17
2019-03-20T04:37:14.558Z,99115.41
2019-03-20T04:39:43.548Z,99117.17
2019-03-20T04:42:12.585Z,99117.56
2019-03-20T04:44:41.485Z,99115.41
2019-03-20T04:47:10.355Z,99124.87
2019-03-20T04:49:40.442Z,99119.28
2019-03-20T04:52:09.522Z,99120.58
2019-03-20T04:54:38.446Z,99121.88
2019-03-20T04:57:07.288Z,99127.05
2019-03-20T04:59:36.140Z,99124.52
2019-03-20T05:02:06.047Z,99125.83
2019-03-20T05:04:35.149Z,99131.87
2019-03-20T05:07:04.229Z,99132.80
2019-03-20T05:09:34.868Z,99127.22
2019-03-20T05:12:04.005Z,99126.42
2019-03-20T05:14:32.959Z,99127.71
2019-03-20T05:17:01.962Z,99133.38
2019-03-20T05:19:30.780Z,99134.27
2019-03-20T05:21:59.663Z,99135.19
2019-03-20T05:24:28.833Z,99139.95
2019-03-20T05:26:57.754Z,99145.61
2019-03-20T05:29:29.201Z,99150.80
2019-03-20T05:31:59.420Z,99156.89
2019-03-20T05:34:28.563Z,99162.92
2019-03-20T05:37:09.963Z,99165.46
2019-03-20T05:39:31.541Z,99173.63
2019-03-20T05:42:02.976Z,99177.45
2019-03-20T05:44:32.125Z,99177.43
2019-03-20T05:47:03.604Z,99188.13
2019-03-20T05:49:32.676Z,99186.78
2019-03-20T05:52:02.874Z,99183.69
2019-03-20T05:54:33.308Z,99190.08
2019-03-20T05:57:02.692Z,99195.17
2019-03-20T05:59:34.591Z,99192.13
2019-03-20T06:02:03.793Z,99196.37
2019-03-20T06:04:36.304Z,99192.42
2019-03-20T06:07:05.712Z,99200.58
2019-03-20T06:09:34.932Z,99200.52
2019-03-20T06:12:08.633Z,99202.17
2019-03-20T06:14:35.148Z,99199.92
2019-03-20T06:17:04.281Z,99205.38
2019-03-20T06:19:33.322Z,99211.28
2019-03-20T06:22:02.382Z,99213.64
2019-03-20T06:24:31.665Z,99210.31
2019-03-20T06:27:00.987Z,99215.94
2019-03-20T06:29:30.104Z,99206.97
2019-03-20T06:31:59.127Z,99218.36
2019-03-20T06:34:30.994Z,99215.83
2019-03-20T06:37:02.547Z,99208.55
2019-03-20T06:39:34.129Z,99211.13
2019-03-20T06:42:03.288Z,99212.91
2019-03-20T06:44:32.192Z,99207.98
2019-03-20T06:47:01.204Z,99213.09
2019-03-20T06:49:30.047Z,99212.88
2019-03-20T06:51:59.180Z,99220.94
2019-03-20T06:54:28.096Z,99222.11
2019-03-20T06:56:57.284Z,99221.39
2019-03-20T07:00:09.350Z,99228.95
2019-03-20T07:02:39.072Z,99232.88
2019-03-20T07:05:48.546Z,99237.60
2019-03-20T07:08:19.266Z,99232.78
2019-03-20T07:11:03.122Z,99237.80
2019-03-20T07:13:32.048Z,99232.58
2019-03-20T07:16:03.358Z,99234.88
2019-03-20T07:18:32.424Z,99227.54
2019-03-20T07:21:01.557Z,99225.88
2019-03-20T07:23:30.555Z,99226.73
2019-03-20T07:25:59.506Z,99223.22
2019-03-20T07:28:29.778Z,99236.67
2019-03-20T07:31:00.433Z,99231.51
2019-03-20T07:33:29.390Z,99236.43
2019-03-20T07:35:58.491Z,99238.57
2019-03-20T07:38:27.487Z,99245.33
2019-03-20T07:40:59.636Z,99243.66
2019-03-20T07:43:31.745Z,99246.91
2019-03-20T07:46:02.164Z,99247.27
2019-03-20T07:48:31.052Z,99250.50
2019-03-20T07:51:02.894Z,99253.25
2019-03-20T07:53:31.742Z,99260.75
2019-03-20T07:56:01.981Z,99256.86
2019-03-20T07:58:30.976Z,99259.42
2019-03-20T08:01:01.409Z,99259.27
2019-03-20T08:03:32.419Z,99265.50
2019-03-20T08:06:01.786Z,99256.33
2019-03-20T08:08:31.281Z,99261.83
2019-03-20T08:11:00.665Z,99262.88
2019-03-20T08:13:29.901Z,99258.65
2019-03-20T08:15:59.114Z,99260.00
2019-03-20T08:18:34.446Z,99265.34
2019-03-20T08:21:05.447Z,99265.19
2019-03-20T08:23:38.474Z,99263.66
2019-03-20T08:26:09.222Z,99269.37
2019-03-20T08:28:41.270Z,99267.61
2019-03-20T08:31:10.439Z,99275.45
2019-03-20T08:33:39.762Z,99268.52
2019-03-20T08:36:12.166Z,99264.24
2019-03-20T08:38:44.176Z,99270.42
2019-03-20T08:41:13.594Z,99269.60
2019-03-20T08:43:42.999Z,99262.26
2019-03-20T08:46:12.322Z,99263.84
2019-03-20T08:48:43.999Z,99263.66
2019-03-20T08:51:13.169Z,99272.48
2019-03-20T08:53:42.224Z,99273.48
2019-03-20T08:56:11.607Z,99267.70
2019-03-20T08:58:40.741Z,99273.38
2019-03-20T09:01:11.051Z,99274.52
2019-03-20T09:03:44.620Z,99274.52
2019-03-20T09:06:22.559Z,99273.27
2019-03-20T09:08:51.806Z,99268.81
2019-03-20T09:11:24.614Z,99273.62
2019-03-20T09:13:54.061Z,99273.64
2019-03-20T09:16:23.182Z,99275.67
2019-03-20T09:18:52.365Z,99270.98
2019-03-20T09:21:23.818Z,99268.62
2019-03-20T09:23:52.874Z,99276.21
2019-03-20T09:26:24.074Z,99277.34
2019-03-20T09:28:53.253Z,99274.86
2019-03-20T09:31:25.465Z,99280.91
2019-03-20T09:33:57.782Z,99283.70
2019-03-20T09:36:26.944Z,99279.30
2019-03-20T09:38:59.378Z,99276.34
2019-03-20T09:41:42.691Z,99284.55
2019-03-20T09:44:11.695Z,99283.53
2019-03-20T09:46:40.651Z,99287.33
2019-03-20T09:49:15.208Z,99279.08
2019-03-20T09:51:44.457Z,99287.18
2019-03-20T09:54:15.099Z,99279.19
2019-03-20T09:56:44.469Z,99285.60
2019-03-20T09:59:14.737Z,99288.69
2019-03-20T10:01:43.911Z,99288.97
2019-03-20T10:04:15.077Z,99285.44
2019-03-20T10:06:44.579Z,99287.00
2019-03-20T10:09:16.804Z,99284.86
2019-03-20T10:11:48.249Z,99286.73
2019-03-20T10:14:17.430Z,99282.64
2019-03-20T10:16:46.563Z,99290.70
2019-03-20T10:19:15.855Z,99287.54
2019-03-20T10:21:47.931Z,99287.67
2019-03-20T10:24:17.513Z,99276.92
2019-03-20T10:26:46.834Z,99288.08
2019-03-20T10:29:21.533Z,99291.41
2019-03-20T10:31:51.996Z,99284.55
2019-03-20T10:34:21.036Z,99287.73
2019-03-20T10:36:50.142Z,99292.56
2019-03-20T10:39:19.277Z,99292.42
2019-03-20T10:41:48.346Z,99292.28
2019-03-20T10:44:17.484Z,99290.73
2019-03-20T10:46:46.638Z,99299.73
2019-03-20T10:49:15.960Z,99296.64
2019-03-20T10:51:45.064Z,99300.70
2019-03-20T10:54:25.235Z,99302.23
2019-03-20T10:56:54.374Z,99301.47
2019-03-20T10:59:23.552Z,99296.52
2019-03-20T11:01:52.725Z,99306.72
2019-03-20T11:04:21.913Z,99297.70
2019-03-20T11:06:51.113Z,99303.16
2019-03-20T11:09:21.548Z,99300.77
2019-03-20T11:11:50.715Z,99306.50
2019-03-20T11:14:19.911Z,99301.98
2019-03-20T11:16:51.306Z,99304.54
2019-03-20T11:19:20.384Z,99297.21
2019-03-20T11:21:52.195Z,99300.55
2019-03-20T11:24:21.368Z,99303.55
2019-03-20T11:26:50.358Z,99301.28
2019-03-20T11:29:21.734Z,99303.60
2019-03-20T11:31:50.333Z,99303.33
2019-03-20T11:34:19.261Z,99297.67
2019-03-20T11:36:49.817Z,99298.45
2019-03-20T11:39:29.184Z,99297.92
2019-03-20T11:41:50.701Z,99284.63
2019-03-20T11:44:19.854Z,99279.91
2019-03-20T11:46:48.847Z,99277.41
2019-03-20T11:49:17.831Z,99279.15
2019-03-20T11:51:46.747Z,99272.00
2019-03-20T11:54:15.672Z,99272.94
2019-03-20T11:56:44.723Z,99275.09
2019-03-20T11:59:13.638Z,99263.70
2019-03-20T12:01:42.677Z,99265.15
2019-03-20T12:04:11.666Z,99267.50
2019-03-20T12:06:40.658Z,99262.63
2019-03-20T12:09:10.596Z,99262.18
2019-03-20T12:11:45.964Z,99254.84
2019-03-20T12:14:10.127Z,99256.14
2019-03-20T12:16:39.085Z,99246.13
2019-03-20T12:19:07.981Z,99246.81
2019-03-20T12:21:37.053Z,99242.22
2019-03-20T12:24:06.188Z,99242.97
2019-03-20T12:26:35.171Z,99242.73
2019-03-20T12:29:04.172Z,99240.01
2019-03-20T12:31:33.094Z,99242.03
2019-03-20T12:34:02.333Z,99240.01
2019-03-20T12:36:31.444Z,99237.73
2019-03-20T12:39:00.518Z,99237.50
2019-03-20T12:41:29.405Z,99239.86
2019-03-20T12:43:59.783Z,99234.84
2019-03-20T12:46:40.914Z,99230.77
2019-03-20T12:48:59.877Z,99227.61
2019-03-20T12:51:28.956Z,99220.47
2019-03-20T12:53:58.010Z,99220.92
2019-03-20T12:56:26.993Z,99221.21
2019-03-20T12:58:58.823Z,99217.44
2019-03-20T13:01:27.824Z,99213.92
2019-03-20T13:03:56.691Z,99210.27
2019-03-20T13:06:25.645Z,99214.69
2019-03-20T13:08:54.719Z,99205.70
2019-03-20T13:11:23.672Z,99214.41
2019-03-20T13:13:52.564Z,99214.86
2019-03-20T13:16:21.478Z,99209.23
2019-03-20T13:18:50.480Z,99208.56
2019-03-20T13:21:19.404Z,99210.58
2019-03-20T13:23:48.354Z,99207.17
2019-03-20T13:26:17.278Z,99201.33
2019-03-20T13:28:46.308Z,99200.57
2019-03-20T13:31:18.018Z,99202.86
2019-03-20T13:33:49.011Z,99194.02
2019-03-20T13:36:17.872Z,99192.25
2019-03-20T13:38:46.912Z,99187.77
2019-03-20T13:41:16.045Z,99189.53
2019-03-20T13:43:45.156Z,99192.81
2019-03-20T13:46:14.256Z,99193.89
2019-03-20T13:48:43.357Z,99192.86
2019-03-20T13:51:12.461Z,99190.84
2019-03-20T13:53:41.636Z,99186.17
2019-03-20T13:56:10.674Z,99182.34
2019-03-20T13:58:42.048Z,99188.73
2019-03-20T14:01:11.046Z,99184.44
2019-03-20T14:03:40.011Z,99185.52
2019-03-20T14:06:08.906Z,99183.23
2019-03-20T14:08:37.885Z,99193.34
2019-03-20T14:11:06.730Z,99186.91
2019-03-20T14:13:35.605Z,99186.62
2019-03-20T14:16:04.502Z,99183.50
2019-03-20T14:18:33.714Z,99180.61
2019-03-20T14:21:02.785Z,99182.44
2019-03-20T14:23:31.791Z,99182.85
2019-03-20T14:26:00.994Z,99181.84
2019-03-20T14:28:31.342Z,99173.88
2019-03-20T14:31:00.414Z,99168.45
2019-03-20T14:33:29.376Z,99171.20
2019-03-20T14:35:59.432Z,99169.80
2019-03-20T14:38:29.516Z,99162.37
2019-03-20T14:40:58.557Z,99164.45
2019-03-20T14:43:27.518Z,99170.20
2019-03-20T14:45:56.541Z,99163.33
2019-03-20T14:48:27.114Z,99159.77
2019-03-20T14:50:56.216Z,99162.83
2019-03-20T14:53:25.103Z,99161.52
2019-03-20T14:55:54.103Z,99159.58
2019-03-20T14:58:23.227Z,99158.61
2019-03-20T15:00:52.221Z,99158.77
2019-03-20T15:03:21.342Z,99155.41
2019-03-20T15:05:50.401Z,99158.49
2019-03-20T15:08:19.301Z,99153.16
2019-03-20T15:10:48.395Z,99151.09
2019-03-20T15:13:18.350Z,99148.95
2019-03-20T15:16:09.297Z,99155.41
2019-03-20T15:18:38.261Z,99152.67
2019-03-20T15:21:07.192Z,99153.31
2019-03-20T15:23:36.108Z,99152.70
2019-03-20T15:26:05.250Z,99157.11
2019-03-20T15:28:34.355Z,99155.87
2019-03-20T15:31:03.491Z,99159.23
2019-03-20T15:33:32.525Z,99160.47
2019-03-20T15:36:01.447Z,99163.70
2019-03-20T15:38:30.372Z,99159.36
2019-03-20T15:40:59.451Z,99158.61
2019-03-20T15:43:29.128Z,99158.96
2019-03-20T15:45:58.128Z,99157.98
2019-03-20T15:48:27.121Z,99157.62
2019-03-20T15:50:56.225Z,99160.81
2019-03-20T15:53:26.136Z,99154.45
2019-03-20T15:55:55.137Z,99164.05
2019-03-20T15:58:24.126Z,99169.98
2019-03-20T16:00:53.139Z,99165.89
2019-03-20T16:03:22.956Z,99164.83
2019-03-20T16:05:51.914Z,99166.98
2019-03-20T16:08:21.099Z,99166.98
2019-03-20T16:10:50.200Z,99174.48
2019-03-20T16:13:19.243Z,99170.94
2019-03-20T16:15:48.407Z,99171.18
2019-03-20T16:18:17.400Z,99175.82
2019-03-20T16:20:46.539Z,99182.44
2019-03-20T16:23:15.652Z,99182.51
2019-03-20T16:25:44.747Z,99182.03
2019-03-20T16:28:13.903Z,99180.52
2019-03-20T16:30:51.867Z,99182.52
2019-03-20T16:33:18.188Z,99186.84
2019-03-20T16:35:48.162Z,99187.00
2019-03-20T16:38:17.024Z,99184.20
2019-03-20T16:40:45.828Z,99185.92
2019-03-20T16:43:14.781Z,99188.05
2019-03-20T16:45:43.788Z,99184.95
2019-03-20T16:48:12.956Z,99184.38
2019-03-20T16:50:41.849Z,99185.97
2019-03-20T16:53:10.802Z,99186.30
2019-03-20T16:55:39.768Z,99185.38
2019-03-20T16:58:08.681Z,99196.23
2019-03-20T17:00:37.682Z,99191.44
2019-03-20T17:03:08.732Z,99195.18
2019-03-20T17:05:37.716Z,99193.22
2019-03-20T17:08:06.682Z,99197.17
2019-03-20T17:10:37.281Z,99192.77
2019-03-20T17:13:06.317Z,99200.87
2019-03-20T17:15:35.309Z,99200.63
2019-03-20T17:18:04.410Z,99198.43
2019-03-20T17:20:33.378Z,99195.80
2019-03-20T17:23:02.492Z,99195.20
2019-03-20T17:25:31.471Z,99203.30
2019-03-20T17:28:00.451Z,99201.44
2019-03-20T17:30:31.149Z,99202.42
2019-03-20T17:33:00.134Z,99206.19
2019-03-20T17:35:28.950Z,99216.08
2019-03-20T17:37:58.234Z,99222.23
2019-03-20T17:40:27.308Z,99227.28
2019-03-20T17:42:56.253Z,99228.10
2019-03-20T17:45:26.436Z,99221.39
2019-03-20T17:47:55.386Z,99225.72
2019-03-20T17:50:27.868Z,99226.56
2019-03-20T17:52:58.010Z,99228.59
2019-03-20T17:55:27.385Z,99236.24
2019-03-20T17:57:57.419Z,99234.97
2019-03-20T18:00:33.307Z,99234.24
2019-03-20T18:03:02.250Z,99228.70
2019-03-20T18:05:31.169Z,99230.98
2019-03-20T18:08:00.235Z,99233.00
2019-03-20T18:10:29.219Z,99243.05
2019-03-20T18:12:58.155Z,99242.52
2019-03-20T18:15:27.082Z,99244.11
2019-03-20T18:17:56.261Z,99245.41
2019-03-20T18:20:25.270Z,99241.70
2019-03-20T18:22:54.144Z,99250.75
2019-03-20T18:25:23.162Z,99239.50
2019-03-20T18:27:52.325Z,99243.98
2019-03-20T18:30:22.161Z,99250.51
2019-03-20T18:32:57.005Z,99254.09
2019-03-20T18:35:26.079Z,99251.52
2019-03-20T18:37:55.082Z,99255.55
2019-03-20T18:40:24.100Z,99260.56
2019-03-20T18:42:52.992Z,99256.39
2019-03-20T18:45:22.189Z,99266.57
2019-03-20T18:47:52.189Z,99272.50
2019-03-20T18:50:21.057Z,99268.70
2019-03-20T18:52:50.056Z,99274.92
2019-03-20T18:55:19.046Z,99275.70
2019-03-20T18:57:48.145Z,99276.84
2019-03-20T19:00:21.906Z,99268.91
2019-03-20T19:02:51.113Z,99268.20
2019-03-20T19:05:26.513Z,99277.91
2019-03-20T19:07:55.428Z,99285.89
2019-03-20T19:10:24.343Z,99283.87
2019-03-20T19:12:55.188Z,99294.94
2019-03-20T19:15:24.058Z,99284.73
2019-03-20T19:17:53.884Z,99291.34
2019-03-20T19:20:23.753Z,99300.23
2019-03-20T19:22:52.745Z,99295.58
2019-03-20T19:25:22.730Z,99294.44
2019-03-20T19:27:51.577Z,99298.09
2019-03-20T19:30:20.577Z,99300.41
2019-03-20T19:32:49.466Z,99299.77
2019-03-20T19:35:18.378Z,99298.56
2019-03-20T19:37:47.266Z,99300.08
2019-03-20T19:40:16.284Z,99295.47
2019-03-20T19:42:45.187Z,99306.83
2019-03-20T19:45:14.249Z,99311.33
2019-03-20T19:47:43.132Z,99302.84
2019-03-20T19:50:13.819Z,99311.50
2019-03-20T19:52:42.774Z,99308.63
2019-03-20T19:55:11.651Z,99305.14
2019-03-20T19:57:41.687Z,99312.12
2019-03-20T20:00:13.214Z,99317.11
2019-03-20T20:02:42.111Z,99322.80
2019-03-20T20:05:15.678Z,99318.96
2019-03-20T20:07:43.078Z,99323.36
2019-03-20T20:10:12.378Z,99326.95
2019-03-20T20:12:41.251Z,99334.75
2019-03-20T20:15:13.106Z,99336.16
2019-03-20T20:17:42.059Z,99334.91
2019-03-20T20:20:13.015Z,99337.20
2019-03-20T20:22:41.845Z,99345.24
2019-03-20T20:25:10.836Z,99348.23
2019-03-20T20:27:39.851Z,99356.23
2019-03-20T20:30:11.493Z,99343.36
2019-03-20T20:32:41.740Z,99344.79
2019-03-20T20:35:10.531Z,99344.79
2019-03-20T20:37:39.292Z,99342.39
2019-03-20T20:40:09.320Z,99338.91
2019-03-20T20:42:43.030Z,99338.05
2019-03-20T20:45:08.881Z,99340.34
2019-03-20T20:47:37.775Z,99353.48
2019-03-20T20:50:06.906Z,99351.56
2019-03-20T20:52:35.717Z,99351.59
2019-03-20T20:55:05.334Z,99354.37
2019-03-20T20:57:34.256Z,99359.67
2019-03-20T21:00:05.339Z,99360.11
2019-03-20T21:02:34.373Z,99368.80
2019-03-20T21:05:04.756Z,99371.98
2019-03-20T21:07:33.756Z,99365.52
2019-03-20T21:10:02.650Z,99357.40
2019-03-20T21:12:31.877Z,99373.95
2019-03-20T21:15:00.663Z,99372.22
2019-03-20T21:17:42.474Z,99366.09
2019-03-20T21:20:11.803Z,99367.39
2019-03-20T21:23:25.475Z,99361.85
2019-03-20T21:25:57.372Z,99362.81
2019-03-20T21:29:16.694Z,99359.47
2019-03-20T21:31:53.417Z,99357.81
2019-03-20T21:34:57.167Z,99361.38
2019-03-20T21:38:03.219Z,99364.51
2019-03-20T21:40:39.318Z,99368.94
2019-03-20T21:43:58.466Z,99371.11
2019-03-20T21:46:57.231Z,99373.25
2019-03-20T21:49:27.519Z,99372.91
2019-03-20T21:51:57.012Z,99368.27
2019-03-20T21:55:10.199Z,99364.48
2019-03-20T21:58:02.523Z,99373.19
2019-03-20T22:01:07.479Z,99372.31
2019-03-20T22:03:36.870Z,99371.45
2019-03-20T22:06:43.794Z,99367.59
2019-03-20T22:09:19.537Z,99360.67
2019-03-20T22:12:14.369Z,99365.05
2019-03-20T22:14:45.730Z,99366.81
2019-03-20T22:17:52.966Z,99368.16
2019-03-20T22:20:53.568Z,99365.59
2019-03-20T22:24:09.496Z,99363.98
2019-03-20T22:27:07.419Z,99366.65
2019-03-20T22:29:37.763Z,99371.91
2019-03-20T22:32:33.490Z,99374.59
2019-03-20T22:35:29.323Z,99384.14
2019-03-20T22:37:59.536Z,99382.91
2019-03-20T22:41:12.168Z,99391.13
2019-03-20T22:43:57.669Z,99388.11
2019-03-20T22:47:10.669Z,99395.44
2019-03-20T22:50:26.200Z,99395.97
2019-03-20T22:53:37.898Z,99391.33
2019-03-20T22:56:28.941Z,99396.89
2019-03-20T22:58:58.378Z,99394.36
2019-03-20T23:01:54.619Z,99389.13
2019-03-20T23:04:28.373Z,99390.42
2019-03-20T23:06:57.646Z,99390.53
2019-03-20T23:09:26.895Z,99398.68
2019-03-20T23:11:56.777Z,99392.63
2019-03-20T23:14:26.075Z,99387.95
2019-03-20T23:16:56.552Z,99387.10
2019-03-20T23:19:25.944Z,99388.45
2019-03-20T23:21:55.352Z,99397.09
2019-03-20T23:24:24.804Z,99390.69
2019-03-20T23:26:54.633Z,99389.02
2019-03-20T23:29:24.158Z,99386.88
2019-03-20T23:31:53.429Z,99386.93
2019-03-20T23:34:22.864Z,99391.29
2019-03-20T23:36:52.324Z,99385.69
2019-03-20T23:39:21.657Z,99380.94
2019-03-20T23:41:50.909Z,99387.36
2019-03-20T23:44:20.213Z,99395.11
2019-03-20T23:46:49.452Z,99390.32
2019-03-20T23:49:21.154Z,99385.13
2019-03-20T23:51:50.528Z,99385.57
2019-03-20T23:54:23.293Z,99386.45
2019-03-20T23:56:52.684Z,99391.66
2019-03-20T23:59:22.120Z,99393.45
